createdAt,value
2018-12-18T00:00:20.401Z,0
2018-12-18T00:01:18.873Z,0
2018-12-18T00:02:17.424Z,0
2018-12-18T00:03:15.991Z,0
2018-12-18T00:04:14.544Z,0
2018-12-18T00:05:13.297Z,0
2018-12-18T00:06:12.106Z,0
2018-12-18T00:07:10.644Z,0
2018-12-18T00:08:09.271Z,0
2018-12-18T00:09:08.061Z,0
2018-12-18T00:10:06.568Z,0
2018-12-18T00:11:05.114Z,0
2018-12-18T00:12:03.632Z,0
2018-12-18T00:13:02.179Z,0
2018-12-18T00:14:00.746Z,0
2018-12-18T00:14:59.477Z,0
2018-12-18T00:15:58.240Z,0
2018-12-18T00:16:56.763Z,0
2018-12-18T00:17:55.651Z,0
2018-12-18T00:18:54.207Z,0
2018-12-18T00:19:52.742Z,0
2018-12-18T00:20:51.244Z,0
2018-12-18T00:21:49.800Z,0
2018-12-18T00:22:48.334Z,0
2018-12-18T00:23:47.063Z,0
2018-12-18T00:24:45.937Z,0
2018-12-18T00:25:44.478Z,0
2018-12-18T00:26:43.178Z,0
2018-12-18T00:27:41.765Z,0
2018-12-18T00:28:40.298Z,0
2018-12-18T00:29:38.861Z,0
2018-12-18T00:30:37.396Z,0
2018-12-18T00:31:35.938Z,0
2018-12-18T00:32:34.431Z,0
2018-12-18T00:33:32.986Z,0
2018-12-18T00:34:31.628Z,0
2018-12-18T00:35:30.169Z,0
2018-12-18T00:36:28.714Z,0
2018-12-18T00:37:27.580Z,0
2018-12-18T00:38:26.239Z,0
2018-12-18T00:39:24.791Z,0
2018-12-18T00:41:40.739Z,0
2018-12-18T00:42:39.399Z,0
2018-12-18T00:43:38.059Z,0
2018-12-18T00:44:36.551Z,0
2018-12-18T00:45:35.287Z,0
2018-12-18T00:46:34.041Z,0
2018-12-18T00:47:32.592Z,0
2018-12-18T00:48:31.141Z,0
2018-12-18T00:49:29.716Z,0
2018-12-18T00:50:28.212Z,0
2018-12-18T00:51:26.739Z,0
2018-12-18T00:52:25.278Z,0
2018-12-18T00:53:23.800Z,0
2018-12-18T00:54:22.363Z,0
2018-12-18T00:55:21.013Z,0
2018-12-18T00:56:19.934Z,0
2018-12-18T00:57:18.458Z,0
2018-12-18T00:58:17.001Z,0
2018-12-18T00:59:15.766Z,0
2018-12-18T01:00:14.327Z,0
2018-12-18T01:01:12.862Z,0
2018-12-18T01:02:11.405Z,0
2018-12-18T01:03:09.934Z,0
2018-12-18T01:04:08.475Z,0
2018-12-18T01:05:07.162Z,0
2018-12-18T01:06:05.899Z,0
2018-12-18T01:07:04.446Z,0
2018-12-18T01:08:03.138Z,0
2018-12-18T01:09:01.897Z,0
2018-12-18T01:10:00.438Z,0
2018-12-18T01:10:59.038Z,0
2018-12-18T01:11:57.590Z,0
2018-12-18T01:12:56.121Z,0
2018-12-18T01:13:54.645Z,0
2018-12-18T01:14:53.285Z,0
2018-12-18T01:15:52.009Z,0
2018-12-18T01:16:50.558Z,0
2018-12-18T01:17:49.269Z,0
2018-12-18T01:18:48.046Z,0
2018-12-18T01:19:46.583Z,0
2018-12-18T01:20:45.099Z,0
2018-12-18T01:21:43.717Z,0
2018-12-18T01:22:42.268Z,0
2018-12-18T01:23:40.802Z,0
2018-12-18T01:24:39.347Z,0
2018-12-18T01:25:37.872Z,0
2018-12-18T01:26:36.410Z,0
2018-12-18T01:27:35.090Z,0
2018-12-18T01:28:33.949Z,0
2018-12-18T01:29:32.468Z,0
2018-12-18T01:30:30.985Z,0
2018-12-18T01:31:29.837Z,0
2018-12-18T01:32:28.379Z,0
2018-12-18T01:33:26.886Z,0
2018-12-18T01:34:25.448Z,0
2018-12-18T01:35:23.996Z,0
2018-12-18T01:36:22.535Z,0
2018-12-18T01:37:21.199Z,0
2018-12-18T01:38:19.845Z,0
2018-12-18T01:39:18.403Z,0
2018-12-18T01:40:16.921Z,0
2018-12-18T01:41:15.666Z,0
2018-12-18T01:42:14.257Z,0
2018-12-18T01:43:12.823Z,0
2018-12-18T01:44:11.559Z,0
2018-12-18T01:45:10.130Z,0
2018-12-18T01:46:08.697Z,0
2018-12-18T01:47:07.203Z,0
2018-12-18T01:48:05.763Z,0
2018-12-18T01:49:04.299Z,0
2018-12-18T01:50:02.947Z,0
2018-12-18T01:51:01.850Z,0
2018-12-18T01:53:42.188Z,0
2018-12-18T01:54:40.756Z,0
2018-12-18T01:55:39.712Z,0
2018-12-18T01:56:38.247Z,0
2018-12-18T01:57:36.782Z,0
2018-12-18T01:58:35.674Z,0
2018-12-18T01:59:34.188Z,0
2018-12-18T02:00:32.747Z,0
2018-12-18T02:01:31.289Z,0
2018-12-18T02:02:29.833Z,0
2018-12-18T02:03:28.357Z,0
2018-12-18T02:04:26.892Z,0
2018-12-18T02:05:25.651Z,0
2018-12-18T02:06:24.423Z,0
2018-12-18T02:07:22.961Z,0
2018-12-18T02:08:21.799Z,0
2018-12-18T02:09:20.365Z,0
2018-12-18T02:10:18.913Z,0
2018-12-18T02:11:17.450Z,0
2018-12-18T02:12:15.987Z,0
2018-12-18T02:13:14.516Z,0
2018-12-18T02:14:13.196Z,0
2018-12-18T02:15:11.975Z,0
2018-12-18T02:16:10.527Z,0
2018-12-18T02:17:09.173Z,0
2018-12-18T02:18:07.950Z,0
2018-12-18T02:19:06.495Z,0
2018-12-18T02:20:05.024Z,0
2018-12-18T02:21:03.561Z,0
2018-12-18T02:22:02.108Z,0
2018-12-18T02:23:00.670Z,0
2018-12-18T02:23:59.256Z,0
2018-12-18T02:24:57.809Z,0
2018-12-18T02:25:56.340Z,0
2018-12-18T02:26:55.000Z,0
2018-12-18T02:27:53.849Z,0
2018-12-18T02:28:52.419Z,0
2018-12-18T02:29:51.078Z,0
2018-12-18T02:30:49.779Z,0
2018-12-18T02:31:48.326Z,0
2018-12-18T02:32:46.987Z,0
2018-12-18T02:33:45.616Z,0
2018-12-18T02:34:44.163Z,0
2018-12-18T02:35:42.718Z,0
2018-12-18T02:36:41.451Z,0
2018-12-18T02:37:40.131Z,0
2018-12-18T02:38:38.678Z,0
2018-12-18T02:39:37.367Z,0
2018-12-18T02:40:35.926Z,0
2018-12-18T02:41:34.463Z,0
2018-12-18T02:42:32.984Z,0
2018-12-18T02:43:31.664Z,0
2018-12-18T02:44:30.198Z,0
2018-12-18T02:45:28.715Z,0
2018-12-18T02:46:27.441Z,0
2018-12-18T02:47:26.050Z,0
2018-12-18T02:50:06.410Z,0
2018-12-18T02:51:04.964Z,0
2018-12-18T02:52:03.522Z,0
2018-12-18T02:53:02.095Z,0
2018-12-18T02:54:00.718Z,0
2018-12-18T02:54:59.385Z,0
2018-12-18T02:55:58.055Z,0
2018-12-18T02:56:56.600Z,0
2018-12-18T02:57:55.249Z,0
2018-12-18T02:58:54.166Z,0
2018-12-18T02:59:52.689Z,0
2018-12-18T03:00:51.222Z,0
2018-12-18T03:01:49.785Z,0
2018-12-18T03:02:48.322Z,0
2018-12-18T03:03:46.928Z,0
2018-12-18T03:04:45.712Z,0
2018-12-18T03:05:44.301Z,0
2018-12-18T03:06:42.848Z,0
2018-12-18T03:07:41.740Z,0
2018-12-18T03:11:30.742Z,0
2018-12-18T03:12:29.471Z,0
2018-12-18T03:13:28.025Z,0
2018-12-18T03:14:26.633Z,0
2018-12-18T03:15:25.321Z,0
2018-12-18T03:16:24.023Z,0
2018-12-18T03:17:22.550Z,0
2018-12-18T03:18:21.163Z,0
2018-12-18T03:19:19.988Z,0
2018-12-18T03:20:18.535Z,0
2018-12-18T03:21:17.073Z,0
2018-12-18T03:22:15.608Z,0
2018-12-18T03:23:14.140Z,0
2018-12-18T03:24:12.676Z,0
2018-12-18T03:25:11.227Z,0
2018-12-18T03:26:09.786Z,0
2018-12-18T03:27:08.345Z,0
2018-12-18T03:28:06.985Z,0
2018-12-18T03:29:05.879Z,0
2018-12-18T03:30:04.402Z,0
2018-12-18T03:31:03.000Z,0
2018-12-18T03:32:01.707Z,0
2018-12-18T03:33:00.272Z,0
2018-12-18T03:33:58.802Z,0
2018-12-18T03:34:57.342Z,0
2018-12-18T03:35:55.935Z,0
2018-12-18T03:36:54.471Z,0
2018-12-18T03:37:53.257Z,0
2018-12-18T03:38:52.032Z,0
2018-12-18T03:39:50.563Z,0
2018-12-18T03:40:49.165Z,0
2018-12-18T03:41:47.923Z,0
2018-12-18T03:42:46.462Z,0
2018-12-18T03:43:44.995Z,0
2018-12-18T03:44:43.687Z,0
2018-12-18T03:45:42.247Z,0
2018-12-18T03:48:22.426Z,0
2018-12-18T03:49:20.988Z,0
2018-12-18T03:50:19.915Z,0
2018-12-18T03:51:18.483Z,0
2018-12-18T03:52:17.043Z,0
2018-12-18T03:53:15.630Z,0
2018-12-18T03:54:14.175Z,0
2018-12-18T03:55:12.746Z,0
2018-12-18T03:56:11.418Z,0
2018-12-18T03:57:10.079Z,0
2018-12-18T03:58:08.664Z,0
2018-12-18T03:59:07.329Z,0
2018-12-18T04:00:06.362Z,0
2018-12-18T04:01:04.914Z,0
2018-12-18T04:02:03.765Z,0
2018-12-18T04:03:02.344Z,0
2018-12-18T04:04:00.903Z,0
2018-12-18T04:04:59.645Z,0
2018-12-18T04:05:58.190Z,0
2018-12-18T04:06:56.728Z,0
2018-12-18T04:07:55.258Z,0
2018-12-18T04:08:53.807Z,0
2018-12-18T04:09:52.369Z,0
2018-12-18T04:10:51.039Z,0
2018-12-18T04:11:49.652Z,0
2018-12-18T04:12:48.296Z,0
2018-12-18T04:13:46.892Z,0
2018-12-18T04:14:45.521Z,0
2018-12-18T04:15:44.179Z,0
2018-12-18T04:16:42.698Z,0
2018-12-18T04:17:41.349Z,0
2018-12-18T04:18:39.927Z,0
2018-12-18T04:19:38.474Z,0
2018-12-18T04:20:37.019Z,0
2018-12-18T04:21:35.720Z,0
2018-12-18T04:22:34.281Z,0
2018-12-18T04:23:32.805Z,0
2018-12-18T04:24:31.663Z,0
2018-12-18T04:25:30.356Z,0
2018-12-18T04:26:28.931Z,0
2018-12-18T04:27:27.558Z,0
2018-12-18T04:28:26.098Z,0
2018-12-18T04:29:24.637Z,0
2018-12-18T04:30:23.328Z,0
2018-12-18T04:31:22.028Z,0
2018-12-18T04:32:20.585Z,0
2018-12-18T04:33:19.343Z,0
2018-12-18T04:34:18.131Z,0
2018-12-18T04:35:16.669Z,0
2018-12-18T04:36:15.234Z,0
2018-12-18T04:37:13.759Z,0
2018-12-18T04:38:12.286Z,0
2018-12-18T04:39:10.845Z,0
2018-12-18T04:40:09.386Z,0
2018-12-18T04:41:08.031Z,0
2018-12-18T04:42:06.561Z,0
2018-12-18T04:43:05.216Z,0
2018-12-18T04:44:03.977Z,0
2018-12-18T04:45:02.500Z,0
2018-12-18T04:46:01.025Z,0
2018-12-18T04:46:59.765Z,0
2018-12-18T04:47:58.301Z,0
2018-12-18T04:48:56.844Z,0
2018-12-18T04:49:55.391Z,0
2018-12-18T04:50:53.965Z,0
2018-12-18T04:51:52.505Z,0
2018-12-18T04:52:51.040Z,0
2018-12-18T04:53:49.762Z,0
2018-12-18T04:54:48.320Z,0
2018-12-18T04:55:46.874Z,0
2018-12-18T04:56:45.690Z,0
2018-12-18T04:57:44.338Z,0
2018-12-18T04:58:42.870Z,0
2018-12-18T04:59:41.555Z,0
2018-12-18T05:00:40.101Z,0
2018-12-18T05:01:38.671Z,0
2018-12-18T05:02:37.190Z,0
2018-12-18T05:03:35.789Z,0
2018-12-18T05:04:34.557Z,0
2018-12-18T05:05:33.146Z,0
2018-12-18T05:06:31.863Z,0
2018-12-18T05:07:30.397Z,0
2018-12-18T05:08:28.948Z,0
2018-12-18T05:09:27.682Z,0
2018-12-18T05:10:26.295Z,0
2018-12-18T05:11:24.827Z,0
2018-12-18T05:12:23.366Z,0
2018-12-18T05:13:21.916Z,0
2018-12-18T05:14:20.452Z,0
2018-12-18T05:15:19.112Z,0
2018-12-18T05:16:17.838Z,0
2018-12-18T05:17:16.354Z,0
2018-12-18T05:18:14.891Z,0
2018-12-18T05:19:13.565Z,0
2018-12-18T05:20:12.598Z,0
2018-12-18T05:21:10.802Z,0
2018-12-18T05:22:09.455Z,0
2018-12-18T05:23:08.003Z,0
2018-12-18T05:24:06.541Z,0
2018-12-18T05:25:05.070Z,0
2018-12-18T05:26:03.625Z,0
2018-12-18T05:27:02.139Z,0
2018-12-18T05:28:00.668Z,0
2018-12-18T05:28:59.410Z,0
2018-12-18T05:29:58.053Z,0
2018-12-18T05:30:56.617Z,0
2018-12-18T05:31:55.281Z,0
2018-12-18T05:32:54.079Z,0
2018-12-18T05:33:52.602Z,0
2018-12-18T05:34:56.449Z,0
2018-12-18T05:35:49.710Z,0
2018-12-18T05:36:48.226Z,0
2018-12-18T05:37:46.756Z,0
2018-12-18T05:38:45.298Z,0
2018-12-18T05:39:43.831Z,0
2018-12-18T05:40:42.393Z,0
2018-12-18T05:41:41.122Z,0
2018-12-18T05:42:39.940Z,0
2018-12-18T05:43:38.476Z,0
2018-12-18T05:44:37.085Z,0
2018-12-18T05:45:35.852Z,0
2018-12-18T05:46:34.410Z,0
2018-12-18T05:47:32.928Z,0
2018-12-18T05:48:31.489Z,0
2018-12-18T05:49:30.843Z,0
2018-12-18T05:50:28.614Z,0
2018-12-18T05:51:27.301Z,0
2018-12-18T05:54:26.814Z,0
2018-12-18T05:55:25.571Z,0
2018-12-18T05:56:24.228Z,0
2018-12-18T05:57:22.765Z,0
2018-12-18T05:58:21.435Z,0
2018-12-18T05:59:20.020Z,0
2018-12-18T06:00:18.523Z,0
2018-12-18T06:01:17.072Z,0
2018-12-18T06:02:15.600Z,0
2018-12-18T06:03:14.168Z,0
2018-12-18T06:04:12.708Z,0
2018-12-18T06:05:11.468Z,0
2018-12-18T06:06:10.317Z,0
2018-12-18T06:07:08.800Z,0
2018-12-18T06:08:07.509Z,0
2018-12-18T06:09:06.162Z,0
2018-12-18T06:10:04.721Z,0
2018-12-18T06:11:03.300Z,0
2018-12-18T06:12:01.915Z,0
2018-12-18T06:13:00.439Z,0
2018-12-18T06:13:58.977Z,0
2018-12-18T06:14:57.918Z,0
2018-12-18T06:15:56.444Z,0
2018-12-18T06:16:55.002Z,0
2018-12-18T06:17:53.796Z,0
2018-12-18T06:18:52.335Z,0
2018-12-18T06:19:50.863Z,0
2018-12-18T06:20:49.428Z,0
2018-12-18T06:21:47.927Z,0
2018-12-18T06:22:46.517Z,0
2018-12-18T06:23:45.216Z,0
2018-12-18T06:24:43.988Z,0
2018-12-18T06:25:42.544Z,0
2018-12-18T06:26:41.068Z,0
2018-12-18T06:27:39.898Z,0
2018-12-18T06:28:38.453Z,0
2018-12-18T06:29:37.034Z,0
2018-12-18T06:30:35.520Z,0
2018-12-18T06:31:34.083Z,0
2018-12-18T06:32:32.628Z,0
2018-12-18T06:33:31.261Z,0
2018-12-18T06:34:30.094Z,0
2018-12-18T06:35:28.654Z,0
2018-12-18T06:36:27.488Z,0
2018-12-18T06:37:26.064Z,0
2018-12-18T06:38:24.592Z,0
2018-12-18T06:39:23.148Z,0
2018-12-18T06:40:21.682Z,0
2018-12-18T06:41:20.223Z,0
2018-12-18T06:42:18.744Z,0
2018-12-18T06:43:17.316Z,0
2018-12-18T06:44:15.927Z,0
2018-12-18T06:45:14.444Z,0
2018-12-18T06:46:13.067Z,0
2018-12-18T06:47:11.877Z,0
2018-12-18T06:48:10.356Z,0
2018-12-18T06:49:08.915Z,0
2018-12-18T06:50:07.736Z,0
2018-12-18T06:51:06.255Z,0
2018-12-18T06:52:04.814Z,0
2018-12-18T06:53:03.404Z,0
2018-12-18T06:54:01.900Z,0
2018-12-18T06:55:00.428Z,0
2018-12-18T06:55:59.000Z,0
2018-12-18T06:56:57.689Z,0
2018-12-18T06:57:56.284Z,0
2018-12-18T06:58:54.839Z,0
2018-12-18T06:59:53.609Z,0
2018-12-18T07:00:52.391Z,0
2018-12-18T07:01:50.927Z,0
2018-12-18T07:02:50.082Z,0
2018-12-18T07:03:48.627Z,0
2018-12-18T07:04:47.241Z,0
2018-12-18T07:05:45.980Z,0
2018-12-18T07:06:44.575Z,0
2018-12-18T07:07:43.744Z,0
2018-12-18T07:08:41.984Z,0
2018-12-18T07:09:40.577Z,0
2018-12-18T07:12:20.984Z,0
2018-12-18T07:13:19.517Z,5
2018-12-18T07:14:18.077Z,5
2018-12-18T07:15:16.619Z,5
2018-12-18T07:16:22.025Z,5
2018-12-18T07:17:20.577Z,5
2018-12-18T07:18:19.220Z,5
2018-12-18T07:19:18.033Z,5
2018-12-18T07:20:16.622Z,5
2018-12-18T07:21:15.192Z,5
2018-12-18T07:22:13.988Z,5
2018-12-18T07:23:12.511Z,5
2018-12-18T07:24:13.972Z,10
2018-12-18T07:25:09.708Z,10
2018-12-18T07:26:08.245Z,10
2018-12-18T07:27:06.772Z,10
2018-12-18T07:28:05.506Z,10
2018-12-18T07:29:04.221Z,10
2018-12-18T07:30:02.745Z,10
2018-12-18T07:31:01.349Z,10
2018-12-18T07:32:00.128Z,15
2018-12-18T07:32:58.701Z,15
2018-12-18T07:33:57.233Z,15
2018-12-18T07:34:55.817Z,15
2018-12-18T07:35:54.355Z,15
2018-12-18T07:36:52.980Z,15
2018-12-18T07:37:51.689Z,15
2018-12-18T07:38:50.362Z,15
2018-12-18T07:39:48.941Z,15
2018-12-18T07:40:47.790Z,15
2018-12-18T07:41:46.299Z,15
2018-12-18T07:42:44.872Z,20
2018-12-18T07:43:43.502Z,20
2018-12-18T07:44:42.123Z,20
2018-12-18T07:45:40.724Z,20
2018-12-18T07:46:39.547Z,20
2018-12-18T07:47:38.182Z,25
2018-12-18T07:48:36.761Z,25
2018-12-18T07:49:35.557Z,25
2018-12-18T07:50:34.124Z,25
2018-12-18T07:51:32.704Z,25
2018-12-18T07:52:31.358Z,30
2018-12-18T07:53:30.028Z,30
2018-12-18T07:54:28.541Z,30
2018-12-18T07:55:27.298Z,30
2018-12-18T07:56:26.051Z,30
2018-12-18T07:57:24.672Z,30
2018-12-18T07:58:23.269Z,35
2018-12-18T07:59:21.973Z,35
2018-12-18T08:00:20.651Z,35
2018-12-18T08:01:19.334Z,35
2018-12-18T08:02:18.145Z,30
2018-12-18T08:03:16.714Z,30
2018-12-18T08:04:15.266Z,35
2018-12-18T08:05:13.884Z,35
2018-12-18T08:06:12.447Z,35
2018-12-18T08:07:11.015Z,35
2018-12-18T08:08:09.913Z,35
2018-12-18T08:09:08.439Z,35
2018-12-18T08:10:07.065Z,35
2018-12-18T08:11:05.890Z,35
2018-12-18T08:12:04.441Z,35
2018-12-18T08:13:03.163Z,35
2018-12-18T08:14:01.988Z,35
2018-12-18T08:16:42.134Z,35
2018-12-18T08:17:40.698Z,40
2018-12-18T08:18:39.306Z,40
2018-12-18T08:19:37.883Z,40
2018-12-18T08:20:36.434Z,40
2018-12-18T08:21:35.158Z,40
2018-12-18T08:22:34.097Z,40
2018-12-18T08:23:32.665Z,40
2018-12-18T08:24:31.337Z,40
2018-12-18T08:25:29.875Z,40
2018-12-18T08:26:28.458Z,40
2018-12-18T08:27:27.008Z,45
2018-12-18T08:28:25.561Z,45
2018-12-18T08:29:24.087Z,45
2018-12-18T08:30:22.645Z,45
2018-12-18T08:31:21.420Z,45
2018-12-18T08:32:20.028Z,45
2018-12-18T08:35:00.112Z,45
2018-12-18T08:35:58.683Z,45
2018-12-18T08:36:57.337Z,45
2018-12-18T08:37:56.012Z,45
2018-12-18T08:38:54.554Z,45
2018-12-18T08:39:53.070Z,45
2018-12-18T08:40:51.611Z,45
2018-12-18T08:41:50.207Z,50
2018-12-18T08:42:48.909Z,50
2018-12-18T08:45:11.965Z,50
2018-12-18T08:46:10.604Z,50
2018-12-18T08:47:09.092Z,50
2018-12-18T08:48:07.623Z,50
2018-12-18T08:49:06.185Z,50
2018-12-18T08:50:05.485Z,50
2018-12-18T08:51:04.055Z,50
2018-12-18T08:52:02.567Z,50
2018-12-18T08:53:01.136Z,50
2018-12-18T08:53:59.697Z,55
2018-12-18T08:54:58.293Z,50
2018-12-18T08:55:57.062Z,50
2018-12-18T08:56:55.810Z,50
2018-12-18T08:57:54.355Z,50
2018-12-18T08:58:52.889Z,55
2018-12-18T08:59:51.637Z,55
2018-12-18T09:00:50.193Z,55
2018-12-18T09:01:48.754Z,55
2018-12-18T09:02:47.276Z,55
2018-12-18T09:03:45.811Z,55
2018-12-18T09:04:44.322Z,55
2018-12-18T09:05:43.392Z,55
2018-12-18T09:06:41.426Z,55
2018-12-18T09:07:40.035Z,55
2018-12-18T09:08:38.574Z,55
2018-12-18T09:09:37.298Z,55
2018-12-18T09:10:39.741Z,55
2018-12-18T09:11:34.621Z,55
2018-12-18T09:12:33.366Z,55
2018-12-18T09:13:31.915Z,55
2018-12-18T09:14:30.481Z,60
2018-12-18T09:15:29.012Z,60
2018-12-18T09:16:27.609Z,60
2018-12-18T09:17:26.157Z,60
2018-12-18T09:18:24.768Z,60
2018-12-18T09:19:23.424Z,60
2018-12-18T09:20:22.148Z,60
2018-12-18T09:21:20.662Z,60
2018-12-18T09:22:19.328Z,60
2018-12-18T09:23:18.171Z,60
2018-12-18T09:24:16.636Z,60
2018-12-18T09:25:15.180Z,60
2018-12-18T09:26:13.737Z,60
2018-12-18T09:27:12.338Z,60
2018-12-18T09:28:10.877Z,60
2018-12-18T09:29:09.575Z,60
2018-12-18T09:30:08.267Z,60
2018-12-18T09:31:06.830Z,60
2018-12-18T09:32:05.667Z,60
2018-12-18T09:33:04.384Z,60
2018-12-18T09:34:02.974Z,65
2018-12-18T09:35:01.714Z,65
2018-12-18T09:36:00.330Z,65
2018-12-18T09:36:58.970Z,65
2018-12-18T09:37:57.847Z,65
2018-12-18T09:38:56.384Z,65
2018-12-18T09:39:54.924Z,65
2018-12-18T09:40:53.496Z,65
2018-12-18T09:41:52.129Z,65
2018-12-18T09:42:50.607Z,65
2018-12-18T09:43:49.312Z,65
2018-12-18T09:44:48.210Z,65
2018-12-18T09:45:46.757Z,65
2018-12-18T09:46:45.423Z,60
2018-12-18T09:47:44.013Z,65
2018-12-18T09:48:42.581Z,60
2018-12-18T09:49:41.144Z,65
2018-12-18T09:50:40.011Z,65
2018-12-18T09:51:38.590Z,65
2018-12-18T09:52:37.268Z,70
2018-12-18T09:53:36.089Z,70
2018-12-18T09:54:34.656Z,70
2018-12-18T09:55:33.403Z,70
2018-12-18T09:56:32.133Z,65
2018-12-18T09:57:30.683Z,65
2018-12-18T09:58:31.426Z,65
2018-12-18T09:59:30.136Z,70
2018-12-18T10:00:28.763Z,70
2018-12-18T10:01:27.659Z,70
2018-12-18T10:02:26.222Z,70
2018-12-18T10:03:24.797Z,70
2018-12-18T10:04:23.431Z,70
2018-12-18T10:05:22.120Z,70
2018-12-18T10:06:20.714Z,70
2018-12-18T10:07:19.218Z,70
2018-12-18T10:08:17.803Z,70
2018-12-18T10:09:16.325Z,70
2018-12-18T10:10:14.965Z,70
2018-12-18T10:11:13.650Z,70
2018-12-18T10:12:12.345Z,70
2018-12-18T10:13:10.900Z,70
2018-12-18T10:14:09.843Z,70
2018-12-18T10:15:08.501Z,70
2018-12-18T10:16:07.207Z,70
2018-12-18T10:17:06.018Z,70
2018-12-18T10:18:04.596Z,70
2018-12-18T10:19:03.190Z,70
2018-12-18T10:20:01.901Z,70
2018-12-18T10:21:00.533Z,70
2018-12-18T10:21:59.202Z,70
2018-12-18T10:22:58.160Z,70
2018-12-18T10:23:56.767Z,75
2018-12-18T10:24:55.474Z,75
2018-12-18T10:25:54.112Z,70
2018-12-18T10:26:52.682Z,70
2018-12-18T10:27:51.382Z,70
2018-12-18T10:28:50.030Z,70
2018-12-18T10:29:48.631Z,70
2018-12-18T10:30:47.182Z,70
2018-12-18T10:31:46.092Z,75
2018-12-18T10:32:44.655Z,75
2018-12-18T10:33:43.203Z,75
2018-12-18T10:34:41.816Z,75
2018-12-18T10:35:40.395Z,75
2018-12-18T10:36:38.929Z,75
2018-12-18T10:37:37.812Z,75
2018-12-18T10:38:36.521Z,75
2018-12-18T10:39:35.067Z,75
2018-12-18T10:40:33.704Z,75
2018-12-18T10:41:32.265Z,75
2018-12-18T10:42:30.903Z,75
2018-12-18T10:43:29.637Z,75
2018-12-18T10:44:28.426Z,80
2018-12-18T10:45:26.940Z,80
2018-12-18T10:46:25.798Z,80
2018-12-18T10:47:24.369Z,80
2018-12-18T10:48:22.946Z,80
2018-12-18T10:49:21.479Z,80
2018-12-18T10:50:20.103Z,80
2018-12-18T10:51:18.901Z,80
2018-12-18T10:52:17.555Z,80
2018-12-18T10:53:16.305Z,80
2018-12-18T10:54:14.866Z,80
2018-12-18T10:55:13.482Z,80
2018-12-18T10:56:12.196Z,80
2018-12-18T10:57:10.747Z,80
2018-12-18T10:58:09.458Z,85
2018-12-18T10:59:08.465Z,85
2018-12-18T11:00:07.059Z,85
2018-12-18T11:01:05.602Z,85
2018-12-18T11:02:04.371Z,85
2018-12-18T11:03:02.953Z,85
2018-12-18T11:04:01.755Z,85
2018-12-18T11:05:00.433Z,85
2018-12-18T11:08:39.720Z,80
2018-12-18T11:09:38.531Z,80
2018-12-18T11:10:37.091Z,80
2018-12-18T11:11:35.618Z,80
2018-12-18T11:12:34.149Z,80
2018-12-18T11:13:32.913Z,80
2018-12-18T11:14:31.512Z,80
2018-12-18T11:15:30.160Z,80
2018-12-18T11:16:28.679Z,80
2018-12-18T11:17:27.375Z,80
2018-12-18T11:18:26.172Z,80
2018-12-18T11:19:24.727Z,80
2018-12-18T11:20:23.327Z,80
2018-12-18T11:21:21.829Z,75
2018-12-18T11:22:20.403Z,75
2018-12-18T11:23:19.720Z,75
2018-12-18T11:25:59.439Z,75
2018-12-18T11:26:58.233Z,75
2018-12-18T11:29:20.771Z,75
2018-12-18T11:30:19.412Z,75
2018-12-18T11:31:18.148Z,75
2018-12-18T11:32:16.685Z,75
2018-12-18T11:33:15.391Z,75
2018-12-18T11:34:14.127Z,75
2018-12-18T11:35:12.676Z,75
2018-12-18T11:36:16.381Z,75
2018-12-18T11:37:09.780Z,75
2018-12-18T11:38:08.294Z,75
2018-12-18T11:39:06.838Z,75
2018-12-18T11:40:05.434Z,75
2018-12-18T11:41:03.966Z,75
2018-12-18T11:42:02.537Z,75
2018-12-18T11:43:01.183Z,75
2018-12-18T11:43:59.776Z,75
2018-12-18T11:44:58.393Z,75
2018-12-18T11:45:56.930Z,75
2018-12-18T11:46:55.655Z,80
2018-12-18T11:47:54.241Z,80
2018-12-18T11:48:52.767Z,80
2018-12-18T11:49:51.469Z,80
2018-12-18T11:50:50.049Z,80
2018-12-18T11:51:48.587Z,80
2018-12-18T11:52:47.227Z,80
2018-12-18T11:53:45.928Z,80
2018-12-18T11:54:44.450Z,80
2018-12-18T11:55:43.119Z,80
2018-12-18T11:56:41.964Z,80
2018-12-18T11:57:40.514Z,80
2018-12-18T11:58:39.439Z,80
2018-12-18T11:59:38.182Z,80
2018-12-18T12:00:36.760Z,80
2018-12-18T12:01:35.293Z,80
2018-12-18T12:02:34.302Z,80
2018-12-18T12:03:32.803Z,80
2018-12-18T12:04:31.513Z,80
2018-12-18T12:05:30.228Z,80
2018-12-18T12:06:28.772Z,80
2018-12-18T12:07:27.436Z,80
2018-12-18T12:08:26.202Z,80
2018-12-18T12:09:24.772Z,80
2018-12-18T12:10:23.313Z,85
2018-12-18T12:11:22.083Z,85
2018-12-18T12:12:20.754Z,85
2018-12-18T12:13:19.547Z,85
2018-12-18T12:14:18.433Z,80
2018-12-18T12:15:17.068Z,80
2018-12-18T12:16:15.900Z,80
2018-12-18T12:17:14.523Z,80
2018-12-18T12:18:13.094Z,80
2018-12-18T12:19:11.837Z,80
2018-12-18T12:20:10.401Z,80
2018-12-18T12:21:08.987Z,80
2018-12-18T12:22:07.502Z,85
2018-12-18T12:23:06.083Z,85
2018-12-18T12:24:04.649Z,85
2018-12-18T12:25:03.357Z,85
2018-12-18T12:26:01.929Z,85
2018-12-18T12:27:00.478Z,90
2018-12-18T12:27:59.122Z,90
2018-12-18T12:28:57.753Z,95
2018-12-18T12:29:56.420Z,90
2018-12-18T12:30:55.003Z,90
2018-12-18T12:31:53.609Z,90
2018-12-18T12:32:52.140Z,90
2018-12-18T12:33:50.751Z,90
2018-12-18T12:34:49.387Z,95
2018-12-18T12:35:48.045Z,95
2018-12-18T12:36:46.721Z,95
2018-12-18T12:37:45.347Z,95
2018-12-18T12:38:44.172Z,95
2018-12-18T12:39:42.753Z,95
2018-12-18T12:40:41.324Z,95
2018-12-18T12:41:39.837Z,95
2018-12-18T12:42:38.358Z,95
2018-12-18T12:43:36.976Z,95
2018-12-18T12:44:35.695Z,95
2018-12-18T12:45:34.444Z,95
2018-12-18T12:46:32.972Z,95
2018-12-18T12:47:33.722Z,100
2018-12-18T12:48:32.299Z,100
2018-12-18T12:49:30.840Z,100
2018-12-18T12:50:29.462Z,100
2018-12-18T12:51:28.000Z,100
2018-12-18T12:52:26.530Z,100
2018-12-18T12:53:25.199Z,100
2018-12-18T12:54:24.133Z,100
2018-12-18T12:55:22.688Z,100
2018-12-18T12:56:21.253Z,100
2018-12-18T12:57:19.860Z,100
2018-12-18T12:58:18.396Z,100
2018-12-18T12:59:16.960Z,100
2018-12-18T13:00:15.568Z,100
2018-12-18T13:01:14.127Z,100
2018-12-18T13:02:12.638Z,100
2018-12-18T13:03:11.493Z,100
2018-12-18T13:04:10.272Z,100
2018-12-18T13:05:08.756Z,100
2018-12-18T13:06:07.514Z,100
2018-12-18T13:07:06.159Z,100
2018-12-18T13:08:04.728Z,100
2018-12-18T13:09:03.280Z,100
2018-12-18T13:10:01.990Z,100
2018-12-18T13:11:00.496Z,100
2018-12-18T13:11:59.059Z,100
2018-12-18T13:12:58.003Z,95
2018-12-18T13:13:56.629Z,95
2018-12-18T13:14:55.215Z,95
2018-12-18T13:15:53.828Z,95
2018-12-18T13:16:52.409Z,95
2018-12-18T13:17:50.928Z,95
2018-12-18T13:18:49.424Z,90
2018-12-18T13:19:48.157Z,90
2018-12-18T13:20:46.715Z,90
2018-12-18T13:21:45.231Z,90
2018-12-18T13:22:44.119Z,90
2018-12-18T13:23:42.700Z,90
2018-12-18T13:24:41.360Z,90
2018-12-18T13:25:39.932Z,85
2018-12-18T13:26:38.476Z,85
2018-12-18T13:27:37.006Z,85
2018-12-18T13:28:35.839Z,85
2018-12-18T13:29:34.610Z,80
2018-12-18T13:30:33.882Z,80
2018-12-18T13:31:32.568Z,80
2018-12-18T13:32:31.081Z,80
2018-12-18T13:33:29.931Z,75
2018-12-18T13:34:28.501Z,75
2018-12-18T13:35:27.049Z,75
2018-12-18T13:36:25.570Z,75
2018-12-18T13:37:24.185Z,75
2018-12-18T13:38:22.757Z,75
2018-12-18T13:39:21.446Z,75
2018-12-18T13:40:20.318Z,75
2018-12-18T13:41:18.910Z,75
2018-12-18T13:42:17.588Z,75
2018-12-18T13:43:16.215Z,75
2018-12-18T13:44:14.870Z,75
2018-12-18T13:45:13.596Z,75
2018-12-18T13:46:15.098Z,75
2018-12-18T13:47:10.761Z,70
2018-12-18T13:48:09.418Z,70
2018-12-18T13:49:08.274Z,70
2018-12-18T13:50:06.792Z,70
2018-12-18T13:51:05.357Z,70
2018-12-18T13:52:03.897Z,70
2018-12-18T13:53:02.449Z,70
2018-12-18T13:54:01.325Z,70
2018-12-18T13:55:00.300Z,70
2018-12-18T13:55:58.839Z,70
2018-12-18T13:56:57.386Z,70
2018-12-18T13:57:55.935Z,70
2018-12-18T13:58:54.921Z,70
2018-12-18T13:59:53.700Z,70
2018-12-18T14:00:52.422Z,70
2018-12-18T14:01:50.899Z,70
2018-12-18T14:02:49.395Z,70
2018-12-18T14:03:47.978Z,70
2018-12-18T14:04:46.553Z,70
2018-12-18T14:05:45.106Z,70
2018-12-18T14:06:49.431Z,65
2018-12-18T14:07:42.125Z,65
2018-12-18T14:08:40.688Z,65
2018-12-18T14:09:39.434Z,65
2018-12-18T14:10:38.272Z,65
2018-12-18T14:11:36.860Z,65
2018-12-18T14:12:35.518Z,65
2018-12-18T14:13:34.153Z,65
2018-12-18T14:14:32.790Z,60
2018-12-18T14:15:31.540Z,60
2018-12-18T14:16:30.338Z,60
2018-12-18T14:17:29.038Z,60
2018-12-18T14:18:28.067Z,60
2018-12-18T14:19:26.636Z,60
2018-12-18T14:20:25.235Z,60
2018-12-18T14:21:23.955Z,60
2018-12-18T14:22:22.667Z,60
2018-12-18T14:23:21.326Z,55
2018-12-18T14:24:19.834Z,55
2018-12-18T14:25:18.336Z,55
2018-12-18T14:26:16.902Z,55
2018-12-18T14:27:15.675Z,55
2018-12-18T14:28:14.364Z,55
2018-12-18T14:29:12.959Z,55
2018-12-18T14:30:11.590Z,55
2018-12-18T14:31:10.372Z,50
2018-12-18T14:32:08.955Z,50
2018-12-18T14:33:07.490Z,50
2018-12-18T14:34:06.018Z,50